createdAt,value
2023-05-10T00:01:19.690Z,100537.66
2023-05-10T00:03:48.732Z,100561.59
2023-05-10T00:06:16.112Z,100627.06
2023-05-10T00:08:43.441Z,100640.63
2023-05-10T00:11:10.759Z,100672.38
2023-05-10T00:13:38.009Z,100697.28
2023-05-10T00:16:06.159Z,100681.28
2023-05-10T00:18:33.572Z,100676.91
2023-05-10T00:21:02.250Z,100675.56
2023-05-10T00:23:29.711Z,100687.00
2023-05-10T00:25:58.714Z,100689.69
2023-05-10T00:28:28.051Z,100684.09
2023-05-10T00:30:55.493Z,100693.78
2023-05-10T00:33:23.648Z,100712.56
2023-05-10T00:35:51.084Z,100690.47
2023-05-10T00:38:19.862Z,100703.28
2023-05-10T00:40:47.366Z,100702.06
2023-05-10T00:43:22.714Z,100704.59
2023-05-10T00:45:53.544Z,100696.44
2023-05-10T00:48:22.043Z,100692.78
2023-05-10T00:50:49.731Z,100712.31
2023-05-10T00:53:17.965Z,100708.25
2023-05-10T00:55:46.777Z,100713.13
2023-05-10T00:58:15.110Z,100703.28
2023-05-10T01:00:43.592Z,100712.09
2023-05-10T01:03:11.530Z,100713.66
2023-05-10T01:05:41.078Z,100721.97
2023-05-10T01:08:08.747Z,100718.38
2023-05-10T01:10:37.202Z,100715.38
2023-05-10T01:13:06.064Z,100713.06
2023-05-10T01:15:33.600Z,100710.13
2023-05-10T01:18:01.453Z,100705.59
2023-05-10T01:20:36.709Z,100736.06
2023-05-10T01:23:34.997Z,100729.78
2023-05-10T01:26:38.093Z,100716.34
2023-05-10T01:29:42.557Z,100721.66
2023-05-10T01:32:27.969Z,100734.94
2023-05-10T01:35:01.382Z,100732.44
2023-05-10T01:37:37.079Z,100739.97
2023-05-10T01:40:15.251Z,100744.63
2023-05-10T01:42:51.159Z,100738.53
2023-05-10T01:45:28.036Z,100734.00
2023-05-10T01:48:06.268Z,100738.41
2023-05-10T01:50:36.406Z,100724.97
2023-05-10T01:53:08.900Z,100740.72
2023-05-10T01:55:42.718Z,100731.25
2023-05-10T01:58:14.029Z,100725.63
2023-05-10T02:00:45.420Z,100730.63
2023-05-10T02:03:17.228Z,100727.81
2023-05-10T02:05:46.902Z,100725.50
2023-05-10T02:08:16.242Z,100734.41
2023-05-10T02:10:45.913Z,100733.31
2023-05-10T02:13:15.014Z,100736.78
2023-05-10T02:15:43.684Z,100730.28
2023-05-10T02:18:15.456Z,100725.91
2023-05-10T02:20:44.454Z,100734.38
2023-05-10T02:23:13.055Z,100726.69
2023-05-10T02:25:42.302Z,100735.00
2023-05-10T02:28:11.359Z,100728.13
2023-05-10T02:30:39.813Z,100725.63
2023-05-10T02:33:07.897Z,100729.09
2023-05-10T02:35:38.607Z,100722.88
2023-05-10T02:38:08.224Z,100730.38
2023-05-10T02:40:38.776Z,100730.38
2023-05-10T02:43:07.228Z,100716.97
2023-05-10T02:45:36.390Z,100723.56
2023-05-10T02:48:04.472Z,100728.22
2023-05-10T02:50:34.206Z,100731.03
2023-05-10T02:53:10.625Z,100722.59
2023-05-10T02:55:41.346Z,100726.06
2023-05-10T02:58:08.743Z,100724.84
2023-05-10T03:00:36.109Z,100706.53
2023-05-10T03:03:04.199Z,100677.28
2023-05-10T03:05:31.547Z,100661.44
2023-05-10T03:08:03.743Z,100654.63
2023-05-10T03:10:33.490Z,100667.06
2023-05-10T03:13:12.001Z,100646.06
2023-05-10T03:15:52.503Z,100654.56
2023-05-10T03:18:24.266Z,100656.78
2023-05-10T03:20:57.921Z,100645.84
2023-05-10T03:23:31.304Z,100646.16
2023-05-10T03:26:00.416Z,100652.53
2023-05-10T03:28:28.509Z,100639.88
2023-05-10T03:30:57.132Z,100647.88
2023-05-10T03:33:24.625Z,100648.94
2023-05-10T03:35:52.035Z,100638.34
2023-05-10T03:38:19.535Z,100634.50
2023-05-10T03:40:48.593Z,100608.50
2023-05-10T03:43:15.931Z,100588.72
2023-05-10T03:45:43.503Z,100587.34
2023-05-10T03:48:11.093Z,100589.22
2023-05-10T03:50:38.443Z,100597.44
2023-05-10T03:53:06.051Z,100586.41
2023-05-10T03:55:33.771Z,100597.44
2023-05-10T03:58:02.574Z,100597.75
2023-05-10T04:00:29.983Z,100579.88
2023-05-10T04:02:57.417Z,100606.19
2023-05-10T04:05:25.049Z,100588.47
2023-05-10T04:07:55.142Z,100593.63
2023-05-10T04:10:22.440Z,100573.22
2023-05-10T04:12:49.731Z,100547.66
2023-05-10T04:15:18.658Z,100543.50
2023-05-10T04:17:45.954Z,100531.56
2023-05-10T04:20:14.173Z,100526.38
2023-05-10T04:22:41.648Z,100523.31
2023-05-10T04:25:09.785Z,100522.53
2023-05-10T04:27:37.030Z,100522.38
2023-05-10T04:30:05.463Z,100505.91
2023-05-10T04:32:34.071Z,100493.50
2023-05-10T04:35:01.542Z,100456.44
2023-05-10T04:37:28.775Z,100387.38
2023-05-10T04:39:56.067Z,100326.44
2023-05-10T04:42:23.318Z,100251.56
2023-05-10T04:44:50.709Z,100171.38
2023-05-10T04:47:18.027Z,100128.66
2023-05-10T04:49:46.707Z,100110.81
2023-05-10T04:52:13.912Z,100050.72
2023-05-10T04:54:41.220Z,100053.13
2023-05-10T04:57:08.447Z,100018.88
2023-05-10T04:59:37.201Z,99992.34
2023-05-10T05:02:05.657Z,99956.53
2023-05-10T05:04:33.172Z,99955.13
2023-05-10T05:07:01.968Z,99944.75
2023-05-10T05:09:29.501Z,99902.63
2023-05-10T05:11:56.672Z,99832.78
2023-05-10T05:14:24.319Z,99801.41
2023-05-10T05:16:51.531Z,99776.69
2023-05-10T05:19:18.932Z,99740.97
2023-05-10T05:21:46.430Z,99735.16
2023-05-10T05:24:15.076Z,99706.97
2023-05-10T05:26:42.345Z,99667.38
2023-05-10T05:29:09.766Z,99642.44
2023-05-10T05:31:37.166Z,99619.69
2023-05-10T05:34:04.911Z,99590.53
2023-05-10T05:36:32.190Z,99542.06
2023-05-10T05:38:59.488Z,99535.34
2023-05-10T05:41:28.105Z,99510.22
2023-05-10T05:43:55.429Z,99449.91
2023-05-10T05:46:22.828Z,99383.81
2023-05-10T05:48:50.249Z,99374.50
2023-05-10T05:51:17.538Z,99373.81
2023-05-10T05:53:44.864Z,99354.69
2023-05-10T05:56:12.143Z,99321.44
2023-05-10T05:58:40.931Z,99295.91
2023-05-10T06:01:08.142Z,99282.63
2023-05-10T06:03:35.670Z,99271.75
2023-05-10T06:06:03.010Z,99250.38
2023-05-10T06:08:30.327Z,99219.31
2023-05-10T06:10:57.669Z,99205.66
2023-05-10T06:13:25.267Z,99171.97
2023-05-10T06:15:53.820Z,99142.72
2023-05-10T06:18:21.047Z,99128.44
2023-05-10T06:20:48.339Z,99119.41
2023-05-10T06:23:16.336Z,99111.47
2023-05-10T06:25:43.602Z,99090.41
2023-05-10T06:28:10.935Z,99100.00
2023-05-10T06:30:38.143Z,99080.84
2023-05-10T06:33:07.003Z,99052.06
2023-05-10T06:35:34.375Z,99034.53
2023-05-10T06:38:01.600Z,99022.59
2023-05-10T06:40:28.880Z,99022.81
2023-05-10T06:42:56.242Z,99020.75
2023-05-10T06:45:23.518Z,99021.19
2023-05-10T06:47:50.828Z,99015.72
2023-05-10T06:50:19.961Z,99026.94
2023-05-10T06:52:47.358Z,99011.72
2023-05-10T06:55:14.692Z,98995.75
2023-05-10T06:57:42.214Z,99027.25
2023-05-10T07:00:10.104Z,99036.78
2023-05-10T07:02:37.676Z,99060.69
2023-05-10T07:05:05.710Z,99087.44
2023-05-10T07:07:34.375Z,99110.41
2023-05-10T07:10:01.642Z,99127.53
2023-05-10T07:12:29.097Z,99165.97
2023-05-10T07:14:56.392Z,99176.41
2023-05-10T07:17:23.808Z,99164.47
2023-05-10T07:19:51.135Z,99194.59
2023-05-10T07:22:18.941Z,99092.06
2023-05-10T07:24:47.782Z,99055.94
2023-05-10T07:27:15.118Z,99074.34
2023-05-10T07:29:42.341Z,99122.44
2023-05-10T07:32:09.686Z,99167.06
2023-05-10T07:34:36.983Z,99216.91
2023-05-10T07:37:04.187Z,99239.81
2023-05-10T07:39:31.352Z,99269.66
2023-05-10T07:42:00.035Z,99333.16
2023-05-10T07:44:27.186Z,99419.34
2023-05-10T07:46:54.474Z,99502.06
2023-05-10T07:49:21.664Z,99555.03
2023-05-10T07:51:48.951Z,99576.72
2023-05-10T07:54:16.428Z,99609.66
2023-05-10T07:56:43.675Z,99619.47
2023-05-10T07:59:16.576Z,99637.38
2023-05-10T08:01:44.411Z,99645.59
2023-05-10T08:04:11.699Z,99636.13
2023-05-10T08:06:39.201Z,99629.13
2023-05-10T08:09:06.467Z,99624.72
2023-05-10T08:11:35.006Z,99603.28
2023-05-10T08:14:02.510Z,99597.44
2023-05-10T08:16:31.254Z,99572.22
2023-05-10T08:18:58.652Z,99541.91
2023-05-10T08:21:25.962Z,99539.69
2023-05-10T08:23:53.276Z,99513.97
2023-05-10T08:26:20.489Z,99476.66
2023-05-10T08:28:47.728Z,99455.03
2023-05-10T08:31:15.078Z,99416.50
2023-05-10T08:33:44.546Z,99373.66
2023-05-10T08:36:12.327Z,99331.53
2023-05-10T08:38:39.600Z,99293.00
2023-05-10T08:41:07.356Z,99251.69
2023-05-10T08:43:37.120Z,99213.16
2023-05-10T08:46:08.214Z,99173.66
2023-05-10T08:48:35.990Z,99170.06
2023-05-10T08:51:05.219Z,99163.19
2023-05-10T08:53:37.223Z,99152.75
2023-05-10T08:56:05.363Z,99156.81
2023-05-10T08:58:32.810Z,99131.78
2023-05-10T09:01:01.883Z,99086.44
2023-05-10T09:03:29.282Z,99017.09
2023-05-10T09:05:56.891Z,98963.00
2023-05-10T09:08:27.628Z,98917.22
2023-05-10T09:10:55.691Z,98857.00
2023-05-10T09:13:24.459Z,98820.84
2023-05-10T09:15:52.797Z,98785.19
2023-05-10T09:18:20.156Z,98788.13
2023-05-10T09:20:47.493Z,98760.47
2023-05-10T09:23:14.760Z,98744.41
2023-05-10T09:25:43.747Z,98729.81
2023-05-10T09:28:12.186Z,98720.50
2023-05-10T09:30:39.606Z,98727.78
2023-05-10T09:33:06.932Z,98756.94
2023-05-10T09:35:35.666Z,98753.19
2023-05-10T09:38:05.049Z,98743.78
2023-05-10T09:40:32.745Z,98748.16
2023-05-10T09:43:03.091Z,98750.81
2023-05-10T09:45:31.859Z,98752.03
2023-05-10T09:48:00.325Z,98759.28
2023-05-10T09:50:28.198Z,98771.72
2023-05-10T09:52:57.941Z,98772.25
2023-05-10T09:55:27.389Z,98770.25
2023-05-10T09:58:02.361Z,98769.03
2023-05-10T10:00:35.414Z,98757.38
2023-05-10T10:03:03.388Z,98770.69
2023-05-10T10:05:31.624Z,98772.28
2023-05-10T10:07:59.622Z,98773.91
2023-05-10T10:10:28.173Z,98816.50
2023-05-10T10:12:56.374Z,98840.38
2023-05-10T10:15:25.260Z,98834.28
2023-05-10T10:17:54.035Z,98815.59
2023-05-10T10:20:23.613Z,98839.41
2023-05-10T10:22:51.090Z,98841.63
2023-05-10T10:25:19.982Z,98855.56
2023-05-10T10:28:04.694Z,98857.28
2023-05-10T10:30:43.926Z,98848.56
2023-05-10T10:33:30.820Z,98852.97
2023-05-10T10:36:00.974Z,98839.53
2023-05-10T10:38:37.372Z,98833.28
2023-05-10T10:41:11.383Z,98802.53
2023-05-10T10:43:38.636Z,98794.63
2023-05-10T10:46:12.889Z,98832.72
2023-05-10T10:48:40.659Z,98880.63
2023-05-10T10:51:08.738Z,98887.13
2023-05-10T10:53:38.981Z,98889.31
2023-05-10T10:56:08.004Z,98932.28
2023-05-10T10:58:35.916Z,98975.63
2023-05-10T11:01:18.209Z,98996.22
2023-05-10T11:04:20.076Z,98988.41
2023-05-10T11:06:47.414Z,99005.53
2023-05-10T11:09:14.692Z,99019.97
2023-05-10T11:11:51.570Z,99015.38
2023-05-10T11:14:21.724Z,98981.09
2023-05-10T11:16:51.040Z,98966.19
2023-05-10T11:19:19.233Z,98972.81
2023-05-10T11:21:48.071Z,98953.56
2023-05-10T11:24:16.535Z,98971.09
2023-05-10T11:26:43.989Z,98967.31
2023-05-10T11:29:13.249Z,99006.34
2023-05-10T11:31:44.200Z,99009.84
2023-05-10T11:34:23.470Z,99037.56
2023-05-10T11:36:53.072Z,99073.19
2023-05-10T11:39:20.716Z,99138.78
2023-05-10T11:41:50.449Z,99150.50
2023-05-10T11:44:18.028Z,99141.22
2023-05-10T11:46:45.634Z,99109.38
2023-05-10T11:49:14.437Z,99038.31
2023-05-10T11:51:42.000Z,98953.28
2023-05-10T11:54:11.734Z,98945.88
2023-05-10T11:56:40.469Z,98965.31
2023-05-10T11:59:08.327Z,99002.44
2023-05-10T12:01:35.971Z,99042.84
2023-05-10T12:04:03.747Z,99097.66
2023-05-10T12:06:37.385Z,99135.09
2023-05-10T12:09:07.617Z,99187.16
2023-05-10T12:11:39.666Z,99215.19
2023-05-10T12:14:09.717Z,99234.03
2023-05-10T12:16:37.133Z,99258.78
2023-05-10T12:19:04.644Z,99266.31
2023-05-10T12:21:33.997Z,99249.09
2023-05-10T12:24:03.854Z,99252.28
2023-05-10T12:26:31.240Z,99259.56
2023-05-10T12:29:13.419Z,99285.63
2023-05-10T12:31:57.479Z,99293.78
2023-05-10T12:34:26.293Z,99284.94
2023-05-10T12:36:55.542Z,99268.47
2023-05-10T12:39:22.904Z,99219.88
2023-05-10T12:41:50.379Z,99184.28
2023-05-10T12:44:17.766Z,99168.81
2023-05-10T12:46:45.021Z,99182.69
2023-05-10T12:49:12.722Z,99199.31
2023-05-10T12:51:39.941Z,99207.63
2023-05-10T12:54:08.655Z,99200.75
2023-05-10T12:56:35.918Z,99173.97
2023-05-10T12:59:03.242Z,99053.31
2023-05-10T13:01:30.486Z,99010.53
2023-05-10T13:03:57.901Z,99026.38
2023-05-10T13:06:25.205Z,99039.81
2023-05-10T13:08:52.586Z,99057.84
2023-05-10T13:11:21.395Z,99059.41
2023-05-10T13:13:48.653Z,99081.78
2023-05-10T13:16:16.080Z,99098.06
2023-05-10T13:18:43.429Z,99123.47
2023-05-10T13:21:10.631Z,99096.28
2023-05-10T13:23:37.896Z,99090.06
2023-05-10T13:26:05.315Z,99091.78
2023-05-10T13:28:34.186Z,99084.94
2023-05-10T13:31:01.416Z,99084.63
2023-05-10T13:33:28.826Z,99077.53
2023-05-10T13:35:56.124Z,99083.19
2023-05-10T13:38:23.457Z,99091.13
2023-05-10T13:40:50.932Z,99107.91
2023-05-10T13:43:18.211Z,99119.63
2023-05-10T13:45:46.767Z,99119.63
2023-05-10T13:48:14.115Z,99122.88
2023-05-10T13:50:41.334Z,99140.41
2023-05-10T13:53:08.629Z,99135.84
2023-05-10T13:55:35.835Z,99129.66
2023-05-10T13:58:03.195Z,99130.59
2023-05-10T14:00:30.559Z,99141.59
2023-05-10T14:02:59.258Z,99140.22
2023-05-10T14:05:26.882Z,99138.81
2023-05-10T14:07:54.572Z,99149.72
2023-05-10T14:10:21.794Z,99153.91
2023-05-10T14:12:49.094Z,99170.38
2023-05-10T14:15:16.609Z,99155.69
2023-05-10T14:17:44.217Z,99157.94
2023-05-10T14:20:13.153Z,99157.66
2023-05-10T14:22:40.428Z,99152.66
2023-05-10T14:25:08.733Z,99188.22
2023-05-10T14:27:36.067Z,99225.78
2023-05-10T14:30:03.579Z,99263.72
2023-05-10T14:32:30.890Z,99261.19
2023-05-10T14:34:58.132Z,99319.81
2023-05-10T14:37:26.779Z,99333.28
2023-05-10T14:39:54.189Z,99337.38
2023-05-10T14:42:21.540Z,99349.44
2023-05-10T14:44:48.889Z,99351.81
2023-05-10T14:47:16.339Z,99337.69
2023-05-10T14:49:43.862Z,99337.03
2023-05-10T14:52:11.360Z,99375.38
2023-05-10T14:54:40.040Z,99352.78
2023-05-10T14:57:07.520Z,99377.53
2023-05-10T14:59:34.800Z,99365.69
2023-05-10T15:02:02.725Z,99375.53
2023-05-10T15:04:30.377Z,99350.25
2023-05-10T15:06:58.069Z,99341.47
2023-05-10T15:09:25.651Z,99349.16
2023-05-10T15:11:54.382Z,99315.59
2023-05-10T15:14:21.869Z,99276.38
2023-05-10T15:16:49.285Z,99244.19
2023-05-10T15:19:16.463Z,99229.50
2023-05-10T15:21:43.799Z,99225.69
2023-05-10T15:24:11.053Z,99226.94
2023-05-10T15:26:38.471Z,99226.44
2023-05-10T15:29:07.069Z,99220.50
2023-05-10T15:31:34.491Z,99226.06
2023-05-10T15:34:01.733Z,99218.84
2023-05-10T15:36:29.026Z,99225.88
2023-05-10T15:38:56.318Z,99219.72
2023-05-10T15:41:23.660Z,99213.56
2023-05-10T15:43:50.865Z,99231.97
2023-05-10T15:46:19.554Z,99272.50
2023-05-10T15:48:46.867Z,99408.06
2023-05-10T15:51:14.210Z,99562.94
2023-05-10T15:53:49.713Z,99621.28
2023-05-10T15:56:28.119Z,99559.47
2023-05-10T15:58:55.394Z,99466.28
2023-05-10T16:01:24.258Z,99411.25
2023-05-10T16:03:51.538Z,99376.84
2023-05-10T16:06:19.093Z,99332.66
2023-05-10T16:08:46.306Z,99315.31
2023-05-10T16:11:13.660Z,99284.94
2023-05-10T16:13:40.994Z,99287.34
2023-05-10T16:16:09.175Z,99283.06
2023-05-10T16:18:38.182Z,99284.28
2023-05-10T16:21:05.695Z,99280.78
2023-05-10T16:23:32.995Z,99281.97
2023-05-10T16:26:00.366Z,99276.28
2023-05-10T16:28:27.647Z,99291.69
2023-05-10T16:30:54.953Z,99294.00
2023-05-10T16:33:22.259Z,99315.75
2023-05-10T16:35:50.903Z,99338.97
2023-05-10T16:38:18.146Z,99352.28
2023-05-10T16:40:45.408Z,99378.31
2023-05-10T16:43:12.708Z,99558.00
2023-05-10T16:45:40.044Z,99605.56
2023-05-10T16:48:07.345Z,99565.78
2023-05-10T16:50:34.708Z,99525.78
2023-05-10T16:53:03.340Z,99517.75
2023-05-10T16:55:30.779Z,99504.63
2023-05-10T16:57:58.058Z,99464.09
2023-05-10T17:00:25.435Z,99432.72
2023-05-10T17:02:57.239Z,99411.59
2023-05-10T17:05:24.844Z,99396.03
2023-05-10T17:07:52.209Z,99382.72
2023-05-10T17:10:20.957Z,99380.88
2023-05-10T17:12:48.286Z,99364.88
2023-05-10T17:15:15.805Z,99370.78
2023-05-10T17:17:43.209Z,99362.31
2023-05-10T17:20:11.270Z,99361.78
2023-05-10T17:22:38.653Z,99355.91
2023-05-10T17:25:07.150Z,99354.75
2023-05-10T17:27:36.064Z,99372.53
2023-05-10T17:30:03.903Z,99398.13
2023-05-10T17:32:31.221Z,99400.06
2023-05-10T17:34:58.558Z,99408.44
2023-05-10T17:37:28.566Z,99439.75
2023-05-10T17:39:55.952Z,99460.88
2023-05-10T17:42:23.520Z,99462.16
2023-05-10T17:44:52.487Z,99462.94
2023-05-10T17:47:19.817Z,99468.28
2023-05-10T17:49:47.251Z,99466.53
2023-05-10T17:52:16.946Z,99477.09
2023-05-10T17:54:44.352Z,99488.16
2023-05-10T17:57:11.628Z,99509.19
2023-05-10T17:59:38.932Z,99537.63
2023-05-10T18:02:07.527Z,99566.78
2023-05-10T18:04:35.064Z,99583.84
2023-05-10T18:07:02.387Z,99581.16
2023-05-10T18:09:30.070Z,99541.78
2023-05-10T18:11:57.451Z,99528.34
2023-05-10T18:14:39.123Z,99502.91
2023-05-10T18:17:09.529Z,99496.03
2023-05-10T18:19:37.025Z,99480.19
2023-05-10T18:22:04.333Z,99469.97
2023-05-10T18:27:01.930Z,99473.78
2023-05-10T18:29:32.584Z,99468.44
2023-05-10T18:31:59.900Z,99465.38
2023-05-10T18:34:28.489Z,99473.81
2023-05-10T18:36:55.855Z,99477.09
2023-05-10T18:39:23.614Z,99474.03
2023-05-10T18:41:51.071Z,99482.72
2023-05-10T18:44:18.387Z,99482.97
2023-05-10T18:46:45.823Z,99488.47
2023-05-10T18:49:14.211Z,99502.50
2023-05-10T18:51:42.916Z,99502.75
2023-05-10T18:54:10.151Z,99511.66
2023-05-10T18:56:37.469Z,99524.91
2023-05-10T18:59:04.752Z,99528.50
2023-05-10T19:01:31.988Z,99529.50
2023-05-10T19:03:59.350Z,99543.41
2023-05-10T19:06:26.886Z,99556.16
2023-05-10T19:08:55.648Z,99550.31
2023-05-10T19:11:23.015Z,99552.09
2023-05-10T19:13:50.287Z,99559.50
2023-05-10T19:16:23.061Z,99567.66
2023-05-10T19:18:51.476Z,99558.97
2023-05-10T19:21:18.831Z,99564.56
2023-05-10T19:23:48.159Z,99565.09
2023-05-10T19:26:16.924Z,99571.72
2023-05-10T19:28:44.276Z,99570.09
2023-05-10T19:31:11.817Z,99580.78
2023-05-10T19:33:40.574Z,99595.81
2023-05-10T19:36:09.151Z,99605.22
2023-05-10T19:38:37.128Z,99613.03
2023-05-10T19:41:04.450Z,99619.31
2023-05-10T19:43:35.126Z,99633.59
2023-05-10T19:46:03.437Z,99645.47
2023-05-10T19:48:30.961Z,99664.94
2023-05-10T19:51:00.152Z,99688.19
2023-05-10T19:53:27.732Z,99696.81
2023-05-10T19:55:55.751Z,99705.47
2023-05-10T19:58:23.157Z,99709.78
2023-05-10T20:00:51.846Z,99725.81
2023-05-10T20:03:19.121Z,99731.56
2023-05-10T20:05:46.778Z,99753.22
2023-05-10T20:08:14.503Z,99758.59
2023-05-10T20:10:41.792Z,99781.72
2023-05-10T20:13:09.435Z,99794.88
2023-05-10T20:15:37.951Z,99794.31
2023-05-10T20:18:06.778Z,99811.63
2023-05-10T20:20:34.337Z,99814.84
2023-05-10T20:23:02.024Z,99820.59
2023-05-10T20:25:29.486Z,99831.50
2023-05-10T20:27:56.761Z,99837.09
2023-05-10T20:30:25.111Z,99840.94
2023-05-10T20:32:52.568Z,99855.03
2023-05-10T20:35:21.256Z,99857.91
2023-05-10T20:37:48.561Z,99864.91
2023-05-10T20:40:18.650Z,99859.81
2023-05-10T20:42:46.039Z,99865.31
2023-05-10T20:45:13.639Z,99872.69
2023-05-10T20:47:41.178Z,99887.16
2023-05-10T20:50:09.860Z,99896.22
2023-05-10T20:52:38.524Z,99888.91
2023-05-10T20:55:07.997Z,99902.22
2023-05-10T20:57:35.407Z,99916.50
2023-05-10T21:00:12.842Z,99919.50
2023-05-10T21:02:42.264Z,99928.09
2023-05-10T21:05:10.131Z,99937.56
2023-05-10T21:07:39.179Z,99944.88
2023-05-10T21:10:07.829Z,99945.09
2023-05-10T21:12:35.247Z,99959.28
2023-05-10T21:15:03.772Z,99964.00
2023-05-10T21:17:32.642Z,99962.56
2023-05-10T21:19:59.997Z,99969.38
2023-05-10T21:22:27.864Z,99984.16
2023-05-10T21:24:56.800Z,99981.75
2023-05-10T21:27:24.820Z,99993.00
2023-05-10T21:29:52.243Z,100001.22
2023-05-10T21:32:22.416Z,100014.41
2023-05-10T21:34:50.110Z,100029.22
2023-05-10T21:37:17.887Z,100035.78
2023-05-10T21:39:45.579Z,100036.56
2023-05-10T21:42:14.425Z,100041.00
2023-05-10T21:44:41.711Z,100056.31
2023-05-10T21:47:09.257Z,100066.34
2023-05-10T21:49:36.952Z,100084.97
2023-05-10T21:52:04.637Z,100088.13
2023-05-10T21:54:32.049Z,100116.25
2023-05-10T21:56:59.423Z,100118.56
2023-05-10T21:59:31.106Z,100129.75
2023-05-10T22:01:58.571Z,100128.00
2023-05-10T22:04:25.915Z,100146.84
2023-05-10T22:06:53.307Z,100146.72
2023-05-10T22:09:20.608Z,100142.47
2023-05-10T22:11:48.186Z,100144.63
2023-05-10T22:14:15.513Z,100138.13
2023-05-10T22:16:44.300Z,100127.59
2023-05-10T22:19:11.695Z,100145.63
2023-05-10T22:21:39.213Z,100149.50
2023-05-10T22:24:06.711Z,100144.34
2023-05-10T22:26:37.799Z,100134.91
2023-05-10T22:29:05.130Z,100145.75
2023-05-10T22:31:32.571Z,100142.66
2023-05-10T22:34:01.289Z,100153.09
2023-05-10T22:36:28.546Z,100135.34
2023-05-10T22:38:56.377Z,100135.09
2023-05-10T22:41:23.640Z,100131.09
2023-05-10T22:43:50.975Z,100150.34
2023-05-10T22:46:18.281Z,100164.81
2023-05-10T22:48:45.698Z,100164.97
2023-05-10T22:51:14.408Z,100173.31
2023-05-10T22:53:41.747Z,100179.19
2023-05-10T22:56:09.371Z,100193.97
2023-05-10T22:58:36.829Z,100211.09
2023-05-10T23:01:04.518Z,100225.56
2023-05-10T23:03:32.112Z,100217.66
2023-05-10T23:05:59.744Z,100191.03
2023-05-10T23:08:28.750Z,100168.09
2023-05-10T23:10:56.164Z,100175.38
2023-05-10T23:13:23.600Z,100179.59
2023-05-10T23:15:50.984Z,100176.66
2023-05-10T23:18:18.408Z,100187.66
2023-05-10T23:20:45.739Z,100196.41
2023-05-10T23:23:13.281Z,100203.84
2023-05-10T23:25:41.911Z,100212.69
2023-05-10T23:28:09.329Z,100222.00
2023-05-10T23:30:36.703Z,100224.50
2023-05-10T23:33:04.050Z,100228.72
2023-05-10T23:35:32.072Z,100229.81
2023-05-10T23:37:59.450Z,100232.16
2023-05-10T23:40:26.726Z,100223.44
2023-05-10T23:42:55.444Z,100218.81
2023-05-10T23:45:23.029Z,100231.25
2023-05-10T23:47:50.451Z,100232.50
2023-05-10T23:50:18.196Z,100241.69
2023-05-10T23:52:45.866Z,100253.34
2023-05-10T23:55:13.227Z,100252.22
2023-05-10T23:57:40.594Z,100277.59
